Flagg Spring, Kentucky
Current Conditions -  °F | °C
As of 1:53 PM on Tuesday 27 Jan 2015 (Local Time) from KLUK Reporting Station
Clear Clear  
Wind Chill: 20°   Ceiling: Unl
Heat Index: 29°   Visibility: 10mi
Dew Point: 13°   Wind: 10mph
Humidity: 51%   Direction: 350°N
Pressure: 30.1"   Gusts: NA
Location:  38.8948°N, 84.2968°W
Report Text: KLUK 271853Z 35009KT 330V040 10SM CLR M02/M11 A3010 RMK AO2 SLP200 T10171106
Loading
Personal Weather Stations






























Interactive Weather Map New forecast layout! Learn more

10-Day Weather Forecast

Advertisements
Track Severe Weather on mobile